Terminal Aerodrome Forecast
Issued by NWS Cleveland, OH

Home | Current Version | Previous Version | Graphics & Text | Print | Product List | Glossary On
Versions: 1 2 3 4 5 6 7 8 9 10 11 12 13 14 15 16 17 18 19 20 21 22 23 24 25 26 27 28 29 30 31 32 33 34 35 36 37 38 39 40 41 42
000
FTUS41 KCLE 032300
TAFCLE
TAF
KCLE 032325Z 0400/0506 23015G25KT P6SM OVC010
     FM040200 22012KT 4SM BR OVC007
     FM040500 25010KT 6SM BR OVC007
     FM040700 28008KT 6SM HZ OVC015
     FM042200 30010KT P6SM OVC050
     FM050000 28010G20KT P6SM OVC250=

USA.gov is the U.S. government's official web portal to all federal, state and local government web resources and services.